createdAt,value
2018-10-11T00:01:14.516Z,101659.60
2018-10-11T00:03:42.694Z,101663.73
2018-10-11T00:06:10.916Z,101658.69
2018-10-11T00:08:39.102Z,101663.81
2018-10-11T00:11:07.556Z,101658.95
2018-10-11T00:13:35.733Z,101661.92
2018-10-11T00:16:03.902Z,101663.55
2018-10-11T00:18:32.129Z,101663.14
2018-10-11T00:21:00.316Z,101655.52
2018-10-11T00:23:28.496Z,101661.47
2018-10-11T00:25:56.767Z,101654.53
2018-10-11T00:28:25.045Z,101659.95
2018-10-11T00:30:53.213Z,101658.84
2018-10-11T00:33:21.419Z,101660.61
2018-10-11T00:35:49.591Z,101652.08
2018-10-11T00:38:17.802Z,101657.02
2018-10-11T00:40:45.967Z,101649.98
2018-10-11T00:43:14.217Z,101648.16
2018-10-11T00:45:42.435Z,101645.19
2018-10-11T00:48:11.168Z,101648.13
2018-10-11T00:50:39.480Z,101649.44
2018-10-11T00:53:07.666Z,101645.52
2018-10-11T00:55:35.805Z,101643.42
2018-10-11T00:58:04.108Z,101645.78
2018-10-11T01:00:32.265Z,101632.72
2018-10-11T01:03:00.439Z,101630.89
2018-10-11T01:05:28.667Z,101626.71
2018-10-11T01:07:56.932Z,101616.36
2018-10-11T01:10:25.324Z,101620.28
2018-10-11T01:12:53.584Z,101611.13
2018-10-11T01:15:21.854Z,101611.56
2018-10-11T01:17:50.016Z,101605.33
2018-10-11T01:20:18.165Z,101604.28
2018-10-11T01:22:46.870Z,101603.92
2018-10-11T01:25:15.087Z,101605.72
2018-10-11T01:27:43.308Z,101604.77
2018-10-11T01:30:11.572Z,101605.88
2018-10-11T01:32:39.640Z,101602.42
2018-10-11T01:35:08.187Z,101607.12
2018-10-11T01:37:36.347Z,101609.02
2018-10-11T01:40:04.517Z,101604.83
2018-10-11T01:42:32.692Z,101606.89
2018-10-11T01:45:00.841Z,101607.72
2018-10-11T01:47:28.980Z,101617.08
2018-10-11T01:49:57.181Z,101617.05
2018-10-11T01:52:25.393Z,101614.83
2018-10-11T01:54:53.604Z,101610.31
2018-10-11T01:57:21.809Z,101609.42
2018-10-11T01:59:49.987Z,101602.34
2018-10-11T02:02:18.198Z,101600.60
2018-10-11T02:04:46.366Z,101598.69
2018-10-11T02:07:14.615Z,101604.84
2018-10-11T02:09:42.808Z,101604.59
2018-10-11T02:12:11.064Z,101608.05
2018-10-11T02:14:39.224Z,101599.50
2018-10-11T02:17:07.386Z,101607.23
2018-10-11T02:19:35.568Z,101609.98
2018-10-11T02:22:03.732Z,101601.53
2018-10-11T02:24:31.930Z,101601.83
2018-10-11T02:27:00.174Z,101599.61
2018-10-11T02:29:28.421Z,101591.03
2018-10-11T02:31:56.600Z,101585.29
2018-10-11T02:34:24.778Z,101579.09
2018-10-11T02:36:52.933Z,101576.59
2018-10-11T02:39:21.090Z,101572.61
2018-10-11T02:41:49.199Z,101580.43
2018-10-11T02:44:17.427Z,101577.64
2018-10-11T02:46:45.616Z,101587.91
2018-10-11T02:49:13.774Z,101581.70
2018-10-11T02:51:42.000Z,101580.28
2018-10-11T02:54:10.185Z,101583.17
2018-10-11T02:56:38.316Z,101576.05
2018-10-11T02:59:17.652Z,101573.27
2018-10-11T03:01:45.825Z,101563.25
2018-10-11T03:04:14.066Z,101573.86
2018-10-11T03:06:42.377Z,101563.30
2018-10-11T03:09:11.153Z,101564.54
2018-10-11T03:11:39.566Z,101572.54
2018-10-11T03:14:07.720Z,101572.34
2018-10-11T03:19:35.589Z,101567.41
2018-10-11T03:22:03.829Z,101569.55
2018-10-11T03:24:31.993Z,101568.00
2018-10-11T03:27:00.993Z,101562.95
2018-10-11T03:29:30.523Z,101567.05
2018-10-11T03:31:58.689Z,101563.48
2018-10-11T03:34:28.270Z,101562.42
2018-10-11T03:36:57.431Z,101557.56
2018-10-11T03:39:25.931Z,101555.41
2018-10-11T03:41:54.537Z,101561.28
2018-10-11T03:44:22.708Z,101558.38
2018-10-11T03:46:50.881Z,101557.48
2018-10-11T03:49:19.628Z,101553.06
2018-10-11T03:51:48.294Z,101549.38
2018-10-11T03:54:16.473Z,101547.48
2018-10-11T03:56:44.647Z,101535.16
2018-10-11T03:59:13.229Z,101545.00
2018-10-11T04:01:41.505Z,101550.68
2018-10-11T04:04:09.679Z,101549.27
2018-10-11T04:06:37.861Z,101551.38
2018-10-11T04:09:06.950Z,101545.81
2018-10-11T04:11:35.178Z,101539.77
2018-10-11T04:14:03.355Z,101540.66
2018-10-11T04:16:31.547Z,101541.38
2018-10-11T04:18:59.704Z,101538.93
2018-10-11T04:21:28.084Z,101539.23
2018-10-11T04:23:56.300Z,101534.63
2018-10-11T04:26:24.510Z,101534.97
2018-10-11T04:28:52.720Z,101534.34
2018-10-11T04:31:20.994Z,101531.84
2018-10-11T04:33:49.256Z,101523.41
2018-10-11T04:36:17.595Z,101533.72
2018-10-11T04:38:46.060Z,101527.81
2018-10-11T04:41:14.250Z,101512.98
2018-10-11T04:43:42.509Z,101515.39
2018-10-11T04:46:10.693Z,101518.20
2018-10-11T04:48:38.857Z,101498.09
2018-10-11T04:51:07.066Z,101499.61
2018-10-11T04:53:35.277Z,101501.16
2018-10-11T04:56:03.401Z,101505.50
2018-10-11T04:58:31.548Z,101499.69
2018-10-11T05:00:59.776Z,101497.73
2018-10-11T05:03:28.116Z,101502.36
2018-10-11T05:05:56.423Z,101510.16
2018-10-11T05:08:24.698Z,101508.97
2018-10-11T05:10:52.939Z,101511.23
2018-10-11T05:13:37.296Z,101511.88
2018-10-11T05:16:05.521Z,101509.66
2018-10-11T05:18:34.554Z,101500.56
2018-10-11T05:21:02.869Z,101510.03
2018-10-11T05:23:31.195Z,101508.63
2018-10-11T05:25:59.401Z,101504.87
2018-10-11T05:28:27.557Z,101506.25
2018-10-11T05:30:56.297Z,101518.33
2018-10-11T05:33:24.828Z,101503.30
2018-10-11T05:35:53.126Z,101502.95
2018-10-11T05:38:21.415Z,101505.13
2018-10-11T05:40:49.563Z,101516.48
2018-10-11T05:43:17.995Z,101518.00
2018-10-11T05:45:50.737Z,101507.58
2018-10-11T05:48:18.901Z,101511.52
2018-10-11T05:50:47.177Z,101511.94
2018-10-11T05:53:15.410Z,101507.33
2018-10-11T05:55:43.623Z,101501.59
2018-10-11T05:58:12.409Z,101500.11
2018-10-11T06:00:40.656Z,101500.33
2018-10-11T06:03:09.008Z,101509.34
2018-10-11T06:05:37.227Z,101507.03
2018-10-11T06:08:05.650Z,101497.13
2018-10-11T06:10:36.224Z,101504.25
2018-10-11T06:13:06.100Z,101504.77
2018-10-11T06:15:34.920Z,101515.73
2018-10-11T06:18:03.408Z,101517.87
2018-10-11T06:20:32.403Z,101511.74
2018-10-11T06:23:00.644Z,101514.87
2018-10-11T06:25:28.891Z,101511.52
2018-10-11T06:27:57.307Z,101508.17
2018-10-11T06:30:25.967Z,101506.65
2018-10-11T06:32:54.175Z,101503.66
2018-10-11T06:35:23.267Z,101493.19
2018-10-11T06:37:51.998Z,101498.73
2018-10-11T06:40:21.139Z,101494.02
2018-10-11T06:42:49.858Z,101501.06
2018-10-11T06:45:17.929Z,101498.32
2018-10-11T06:47:49.066Z,101501.94
2018-10-11T06:50:17.381Z,101499.91
2018-10-11T06:52:45.647Z,101499.02
2018-10-11T06:55:14.821Z,101505.03
2018-10-11T06:57:43.098Z,101500.30
2018-10-11T07:00:11.354Z,101512.93
2018-10-11T07:02:39.663Z,101507.98
2018-10-11T07:05:07.956Z,101516.48
2018-10-11T07:07:36.202Z,101512.79
2018-10-11T07:10:04.432Z,101514.67
2018-10-11T07:12:32.760Z,101515.48
2018-10-11T07:15:01.072Z,101522.23
2018-10-11T07:17:31.976Z,101522.97
2018-10-11T07:20:01.232Z,101524.28
2018-10-11T07:22:29.642Z,101533.09
2018-10-11T07:24:58.083Z,101534.66
2018-10-11T07:27:26.354Z,101533.48
2018-10-11T07:29:54.563Z,101530.15
2018-10-11T07:32:22.830Z,101534.16
2018-10-11T07:34:52.876Z,101538.35
2018-10-11T07:37:21.160Z,101537.20
2018-10-11T07:39:49.400Z,101531.57
2018-10-11T07:42:17.680Z,101529.14
2018-10-11T07:44:46.251Z,101530.83
2018-10-11T07:47:14.509Z,101527.72
2018-10-11T07:49:48.666Z,101527.61
2018-10-11T07:52:18.017Z,101521.81
2018-10-11T07:54:46.929Z,101533.77
2018-10-11T07:57:15.168Z,101523.92
2018-10-11T07:59:43.352Z,101521.81
2018-10-11T08:02:11.520Z,101524.31
2018-10-11T08:04:39.799Z,101528.23
2018-10-11T08:07:08.434Z,101533.72
2018-10-11T08:09:36.769Z,101518.15
2018-10-11T08:12:09.060Z,101513.89
2018-10-11T08:14:37.324Z,101513.27
2018-10-11T08:17:05.842Z,101503.05
2018-10-11T08:19:33.953Z,101506.80
2018-10-11T08:22:02.036Z,101508.20
2018-10-11T08:24:30.310Z,101500.41
2018-10-11T08:26:58.632Z,101509.74
2018-10-11T08:29:26.700Z,101507.13
2018-10-11T08:31:54.872Z,101493.92
2018-10-11T08:34:23.077Z,101489.27
2018-10-11T08:36:51.242Z,101479.16
2018-10-11T08:39:19.432Z,101471.75
2018-10-11T08:41:47.668Z,101483.47
2018-10-11T08:44:16.117Z,101488.31
2018-10-11T08:46:44.216Z,101493.47
2018-10-11T08:49:12.456Z,101484.97
2018-10-11T08:51:40.568Z,101470.71
2018-10-11T08:54:14.821Z,101473.42
2018-10-11T08:56:43.172Z,101475.22
2018-10-11T08:59:12.034Z,101488.35
2018-10-11T09:01:40.247Z,101492.88
2018-10-11T09:04:08.805Z,101498.72
2018-10-11T09:06:37.169Z,101493.11
2018-10-11T09:09:07.126Z,101490.03
2018-10-11T09:11:35.875Z,101483.03
2018-10-11T09:14:04.149Z,101477.06
2018-10-11T09:16:34.398Z,101478.75
2018-10-11T09:19:02.611Z,101480.91
2018-10-11T09:21:31.099Z,101481.56
2018-10-11T09:23:59.330Z,101482.89
2018-10-11T09:26:27.580Z,101484.45
2018-10-11T09:28:56.638Z,101482.02
2018-10-11T09:31:25.008Z,101484.27
2018-10-11T09:33:53.808Z,101485.56
2018-10-11T09:36:22.162Z,101487.66
2018-10-11T09:38:51.156Z,101482.89
2018-10-11T09:41:19.836Z,101485.45
2018-10-11T09:43:48.346Z,101488.92
2018-10-11T09:46:16.524Z,101481.76
2018-10-11T09:48:44.783Z,101485.64
2018-10-11T09:51:13.514Z,101478.13
2018-10-11T09:53:42.035Z,101471.14
2018-10-11T09:56:10.305Z,101472.36
2018-10-11T09:58:38.763Z,101468.70
2018-10-11T10:01:12.384Z,101469.30
2018-10-11T10:03:40.750Z,101471.34
2018-10-11T10:06:09.048Z,101477.28
2018-10-11T10:08:37.514Z,101474.66
2018-10-11T10:11:05.703Z,101463.45
2018-10-11T10:13:34.307Z,101458.42
2018-10-11T10:16:02.584Z,101469.30
2018-10-11T10:18:30.945Z,101468.53
2018-10-11T10:20:59.125Z,101466.80
2018-10-11T10:23:27.440Z,101472.30
2018-10-11T10:25:55.649Z,101473.25
2018-10-11T10:28:31.099Z,101467.94
2018-10-11T10:30:59.339Z,101472.78
2018-10-11T10:33:27.536Z,101472.42
2018-10-11T10:35:55.870Z,101476.47
2018-10-11T10:38:24.239Z,101468.48
2018-10-11T10:40:52.767Z,101458.83
2018-10-11T10:43:21.353Z,101465.80
2018-10-11T10:45:49.535Z,101453.16
2018-10-11T10:48:17.731Z,101450.69
2018-10-11T10:50:45.917Z,101442.70
2018-10-11T10:53:14.122Z,101434.84
2018-10-11T10:55:42.454Z,101433.95
2018-10-11T10:58:10.651Z,101422.98
2018-10-11T11:00:38.922Z,101426.54
2018-10-11T11:03:07.478Z,101417.28
2018-10-11T11:05:35.800Z,101420.43
2018-10-11T11:08:04.082Z,101422.52
2018-10-11T11:10:32.297Z,101425.23
2018-10-11T11:13:00.544Z,101425.34
2018-10-11T11:15:28.697Z,101413.90
2018-10-11T11:17:56.941Z,101420.09
2018-10-11T11:20:25.304Z,101411.73
2018-10-11T11:22:53.542Z,101414.38
2018-10-11T11:25:21.926Z,101398.57
2018-10-11T11:27:50.076Z,101395.05
2018-10-11T11:30:18.335Z,101391.95
2018-10-11T11:32:46.885Z,101392.42
2018-10-11T11:35:15.160Z,101387.13
2018-10-11T11:37:43.377Z,101379.64
2018-10-11T11:40:11.552Z,101380.48
2018-10-11T11:42:39.852Z,101377.86
2018-10-11T11:45:08.080Z,101382.30
2018-10-11T11:47:39.758Z,101370.82
2018-10-11T11:50:08.092Z,101374.80
2018-10-11T11:52:36.357Z,101368.66
2018-10-11T11:55:04.584Z,101368.69
2018-10-11T11:57:32.824Z,101377.03
2018-10-11T12:00:01.097Z,101376.14
2018-10-11T12:02:29.295Z,101372.64
2018-10-11T12:04:58.191Z,101378.80
2018-10-11T12:07:26.374Z,101371.75
2018-10-11T12:09:54.658Z,101373.05
2018-10-11T12:13:08.728Z,101368.22
2018-10-11T12:15:37.713Z,101366.00
2018-10-11T12:18:06.758Z,101369.95
2018-10-11T12:20:36.169Z,101370.00
2018-10-11T12:23:05.453Z,101364.70
2018-10-11T12:25:46.188Z,101369.98
2018-10-11T12:28:14.439Z,101359.39
2018-10-11T12:30:42.644Z,101363.83
2018-10-11T12:33:10.946Z,101359.43
2018-10-11T12:35:39.132Z,101352.77
2018-10-11T12:38:07.482Z,101357.16
2018-10-11T12:40:35.730Z,101360.22
2018-10-11T12:43:03.904Z,101359.78
2018-10-11T12:45:32.108Z,101358.48
2018-10-11T12:48:00.363Z,101367.33
2018-10-11T12:50:28.604Z,101367.76
2018-10-11T12:52:57.012Z,101359.39
2018-10-11T12:55:25.180Z,101361.14
2018-10-11T12:57:53.382Z,101365.95
2018-10-11T13:00:27.014Z,101362.45
2018-10-11T13:02:55.376Z,101362.89
2018-10-11T13:05:23.520Z,101354.95
2018-10-11T13:07:51.837Z,101352.28
2018-10-11T13:10:20.122Z,101344.82
2018-10-11T13:12:49.482Z,101345.70
2018-10-11T13:15:18.372Z,101341.70
2018-10-11T13:17:46.552Z,101341.69
2018-10-11T13:20:14.722Z,101336.39
2018-10-11T13:22:43.069Z,101336.88
2018-10-11T13:25:12.480Z,101336.42
2018-10-11T13:27:40.678Z,101339.55
2018-10-11T13:30:08.986Z,101333.75
2018-10-11T13:32:37.242Z,101326.23
2018-10-11T13:35:05.926Z,101323.54
2018-10-11T13:37:34.176Z,101318.63
2018-10-11T13:40:02.812Z,101317.34
2018-10-11T13:42:30.987Z,101322.56
2018-10-11T13:44:59.931Z,101324.29
2018-10-11T13:47:28.298Z,101319.51
2018-10-11T13:49:56.443Z,101320.47
2018-10-11T13:52:24.717Z,101327.93
2018-10-11T13:54:52.946Z,101317.30
2018-10-11T13:57:25.932Z,101320.41
2018-10-11T13:59:49.417Z,101315.14
2018-10-11T14:02:17.638Z,101318.69
2018-10-11T14:04:45.832Z,101314.33
2018-10-11T14:07:13.986Z,101320.49
2018-10-11T14:09:44.232Z,101316.11
2018-10-11T14:12:12.415Z,101314.34
2018-10-11T14:14:40.651Z,101306.72
2018-10-11T14:17:08.929Z,101298.34
2018-10-11T14:19:37.542Z,101301.52
2018-10-11T14:22:05.788Z,101301.94
2018-10-11T14:24:34.027Z,101306.37
2018-10-11T14:27:02.264Z,101301.95
2018-10-11T14:29:30.404Z,101299.77
2018-10-11T14:31:58.799Z,101292.69
2018-10-11T14:34:27.101Z,101287.34
2018-10-11T14:36:55.401Z,101288.70
2018-10-11T14:39:23.525Z,101287.71
2018-10-11T14:41:51.896Z,101289.88
2018-10-11T14:44:23.883Z,101294.73
2018-10-11T14:46:52.089Z,101291.73
2018-10-11T14:49:20.408Z,101287.73
2018-10-11T14:51:48.830Z,101284.19
2018-10-11T14:54:17.154Z,101284.28
2018-10-11T14:56:52.213Z,101279.94
2018-10-11T14:59:20.428Z,101272.91
2018-10-11T15:01:48.590Z,101275.84
2018-10-11T15:04:16.772Z,101274.13
2018-10-11T15:06:45.096Z,101270.69
2018-10-11T15:09:14.136Z,101275.52
2018-10-11T15:11:42.581Z,101285.28
2018-10-11T15:14:11.715Z,101277.64
2018-10-11T15:16:39.981Z,101281.17
2018-10-11T15:19:08.337Z,101282.55
2018-10-11T15:21:37.051Z,101286.11
2018-10-11T15:24:05.271Z,101285.27
2018-10-11T15:26:40.422Z,101293.14
2018-10-11T15:29:08.880Z,101299.42
2018-10-11T15:31:37.059Z,101300.20
2018-10-11T15:34:05.906Z,101301.97
2018-10-11T15:36:34.181Z,101302.89
2018-10-11T15:39:02.419Z,101301.09
2018-10-11T15:41:30.671Z,101298.37
2018-10-11T15:43:58.912Z,101297.16
2018-10-11T15:46:27.160Z,101298.48
2018-10-11T15:48:55.460Z,101298.04
2018-10-11T15:51:23.832Z,101297.69
2018-10-11T15:53:52.171Z,101298.55
2018-10-11T15:56:20.456Z,101300.34
2018-10-11T15:58:48.691Z,101298.58
2018-10-11T16:01:17.071Z,101292.43
2018-10-11T16:03:45.364Z,101292.44
2018-10-11T16:06:15.744Z,101293.31
2018-10-11T16:08:43.965Z,101296.84
2018-10-11T16:11:12.193Z,101297.27
2018-10-11T16:13:40.441Z,101296.79
2018-10-11T16:16:08.690Z,101306.36
2018-10-11T16:18:37.028Z,101301.94
2018-10-11T16:21:05.295Z,101308.46
2018-10-11T16:23:33.579Z,101313.67
2018-10-11T16:26:01.855Z,101314.02
2018-10-11T16:28:30.034Z,101314.17
2018-10-11T16:33:25.410Z,101332.20
2018-10-11T16:35:53.732Z,101332.06
2018-10-11T16:38:22.008Z,101332.43
2018-10-11T16:40:50.261Z,101334.30
2018-10-11T16:43:18.523Z,101331.06
2018-10-11T16:45:47.224Z,101321.93
2018-10-11T16:48:15.418Z,101328.20
2018-10-11T16:50:43.661Z,101323.55
2018-10-11T16:53:11.904Z,101330.18
2018-10-11T16:55:40.158Z,101339.41
2018-10-11T16:58:09.040Z,101335.43
2018-10-11T17:00:37.316Z,101337.12
2018-10-11T17:03:05.833Z,101344.51
2018-10-11T17:05:34.065Z,101341.78
2018-10-11T17:08:03.973Z,101346.03
2018-10-11T17:10:32.150Z,101353.66
2018-10-11T17:13:00.340Z,101353.55
2018-10-11T17:15:28.627Z,101362.59
2018-10-11T17:17:56.786Z,101359.24
2018-10-11T17:20:25.246Z,101362.47
2018-10-11T17:22:53.529Z,101356.72
2018-10-11T17:25:21.772Z,101358.01
2018-10-11T17:27:50.080Z,101361.57
2018-10-11T17:30:18.291Z,101361.63
2018-10-11T17:32:46.497Z,101355.65
2018-10-11T17:35:14.844Z,101352.17
2018-10-11T17:37:43.289Z,101357.99
2018-10-11T17:40:11.963Z,101357.48
2018-10-11T17:42:40.192Z,101355.25
2018-10-11T17:45:09.106Z,101354.39
2018-10-11T17:47:37.711Z,101353.98
2018-10-11T17:50:07.311Z,101359.16
2018-10-11T17:52:35.555Z,101354.34
2018-10-11T17:55:03.778Z,101351.61
2018-10-11T17:57:36.056Z,101357.91
2018-10-11T18:00:04.334Z,101349.05
2018-10-11T18:02:33.116Z,101351.08
2018-10-11T18:05:01.345Z,101350.67
2018-10-11T18:07:30.452Z,101357.19
2018-10-11T18:09:58.701Z,101357.95
2018-10-11T18:12:26.946Z,101352.69
2018-10-11T18:14:55.560Z,101345.55
2018-10-11T18:17:23.802Z,101339.33
2018-10-11T18:20:33.378Z,101341.95
2018-10-11T18:23:02.243Z,101345.52
2018-10-11T18:25:30.514Z,101343.30
2018-10-11T18:27:59.946Z,101342.40
2018-10-11T18:30:28.244Z,101345.80
2018-10-11T18:32:56.499Z,101339.66
2018-10-11T18:35:24.757Z,101346.70
2018-10-11T18:37:53.210Z,101348.02
2018-10-11T18:40:21.445Z,101342.67
2018-10-11T18:42:49.727Z,101359.73
2018-10-11T18:45:18.086Z,101363.23
2018-10-11T18:47:46.326Z,101360.14
2018-10-11T18:50:14.647Z,101366.13
2018-10-11T18:52:42.977Z,101370.42
2018-10-11T18:55:11.286Z,101372.67
2018-10-11T18:57:39.525Z,101370.58
2018-10-11T19:00:08.207Z,101369.54
2018-10-11T19:02:36.488Z,101374.39
2018-10-11T19:05:05.452Z,101381.23
2018-10-11T19:07:33.747Z,101372.87
2018-10-11T19:10:01.969Z,101381.60
2018-10-11T19:12:30.204Z,101378.20
2018-10-11T19:14:58.491Z,101379.25
2018-10-11T19:17:26.782Z,101389.66
2018-10-11T19:19:55.167Z,101385.51
2018-10-11T19:22:23.532Z,101387.38
2018-10-11T19:24:51.796Z,101383.86
2018-10-11T19:27:20.147Z,101380.65
2018-10-11T19:29:48.462Z,101385.19
2018-10-11T19:32:16.761Z,101390.41
2018-10-11T19:34:45.047Z,101391.28
2018-10-11T19:37:13.405Z,101395.30
2018-10-11T19:39:41.641Z,101393.42
2018-10-11T19:42:09.932Z,101394.78
2018-10-11T19:44:38.498Z,101396.36
2018-10-11T19:47:06.793Z,101399.14
2018-10-11T19:49:35.142Z,101400.63
2018-10-11T19:52:03.417Z,101405.22
2018-10-11T19:54:32.262Z,101403.77
2018-10-11T19:57:00.536Z,101412.39
2018-10-11T19:59:28.842Z,101418.08
2018-10-11T20:01:57.077Z,101416.37
2018-10-11T20:04:25.386Z,101423.59
2018-10-11T20:06:53.729Z,101423.42
2018-10-11T20:09:22.019Z,101422.88
2018-10-11T20:11:50.282Z,101427.88
2018-10-11T20:14:18.797Z,101433.17
2018-10-11T20:16:47.128Z,101430.94
2018-10-11T20:19:15.428Z,101439.99
2018-10-11T20:21:43.722Z,101436.19
2018-10-11T20:24:12.073Z,101440.12
2018-10-11T20:26:40.426Z,101437.36
2018-10-11T20:29:08.648Z,101439.97
2018-10-11T20:31:36.920Z,101445.46
2018-10-11T20:34:05.288Z,101442.83
2018-10-11T20:36:33.519Z,101441.38
2018-10-11T20:39:01.809Z,101445.02
2018-10-11T20:41:30.138Z,101449.34
2018-10-11T20:43:58.536Z,101450.23
2018-10-11T20:46:27.283Z,101448.86
2018-10-11T20:48:55.514Z,101454.94
2018-10-11T20:51:23.732Z,101453.67
2018-10-11T20:53:52.039Z,101452.84
2018-10-11T20:56:20.475Z,101454.25
2018-10-11T20:58:49.046Z,101458.56
2018-10-11T21:01:17.281Z,101459.20
2018-10-11T21:03:45.473Z,101467.02
2018-10-11T21:06:13.635Z,101467.25
2018-10-11T21:08:41.810Z,101461.59
2018-10-11T21:11:10.124Z,101463.44
2018-10-11T21:13:38.385Z,101468.02
2018-10-11T21:16:06.927Z,101469.02
2018-10-11T21:18:35.289Z,101469.72
2018-10-11T21:21:03.613Z,101467.10
2018-10-11T21:23:31.811Z,101468.30
2018-10-11T21:26:00.039Z,101469.92
2018-10-11T21:28:28.208Z,101470.48
2018-10-11T21:30:56.410Z,101475.31
2018-10-11T21:33:25.252Z,101472.80
2018-10-11T21:35:53.442Z,101475.48
2018-10-11T21:38:21.648Z,101471.99
2018-10-11T21:40:49.899Z,101477.63
2018-10-11T21:43:18.226Z,101485.86
2018-10-11T21:45:46.390Z,101481.09
2018-10-11T21:48:14.526Z,101470.00
2018-10-11T21:50:43.056Z,101478.78
2018-10-11T21:53:11.325Z,101476.19
2018-10-11T21:55:39.493Z,101473.14
2018-10-11T21:58:07.688Z,101470.27
2018-10-11T22:00:41.386Z,101474.22
2018-10-11T22:03:09.805Z,101476.93
2018-10-11T22:05:38.056Z,101477.55
2018-10-11T22:08:06.248Z,101483.61
2018-10-11T22:10:34.399Z,101487.77
2018-10-11T22:13:02.567Z,101490.47
2018-10-11T22:15:30.870Z,101490.33
2018-10-11T22:17:59.120Z,101488.77
2018-10-11T22:20:27.286Z,101484.97
2018-10-11T22:22:55.706Z,101485.33
2018-10-11T22:25:24.348Z,101485.35
2018-10-11T22:27:52.578Z,101487.09
2018-10-11T22:30:20.770Z,101481.41
2018-10-11T22:32:48.972Z,101480.48
2018-10-11T22:35:17.110Z,101490.89
2018-10-11T22:37:45.285Z,101492.02
2018-10-11T22:40:13.464Z,101501.79
2018-10-11T22:42:41.641Z,101492.45
2018-10-11T22:45:09.793Z,101490.02
2018-10-11T22:47:38.016Z,101490.27
2018-10-11T22:50:06.204Z,101497.62
2018-10-11T22:52:34.406Z,101498.74
2018-10-11T22:55:02.538Z,101492.68
2018-10-11T22:57:30.714Z,101490.52
2018-10-11T22:59:58.957Z,101488.14
2018-10-11T23:02:27.158Z,101485.70
2018-10-11T23:04:55.349Z,101485.02
2018-10-11T23:07:23.557Z,101483.41
2018-10-11T23:09:51.729Z,101476.88
2018-10-11T23:12:19.940Z,101481.32
2018-10-11T23:14:48.213Z,101487.84
2018-10-11T23:17:16.367Z,101485.73
2018-10-11T23:19:44.568Z,101490.30
2018-10-11T23:22:12.721Z,101490.11
2018-10-11T23:24:40.875Z,101487.91
2018-10-11T23:27:09.059Z,101490.40
2018-10-11T23:29:37.270Z,101485.38
2018-10-11T23:32:05.515Z,101489.59
2018-10-11T23:34:33.673Z,101496.94
2018-10-11T23:37:01.923Z,101496.78
2018-10-11T23:39:30.069Z,101496.89
2018-10-11T23:41:58.295Z,101500.57
2018-10-11T23:44:26.514Z,101506.05
2018-10-11T23:46:54.722Z,101497.39
2018-10-11T23:49:22.918Z,101503.45
2018-10-11T23:51:51.061Z,101504.70
2018-10-11T23:54:19.270Z,101508.81
2018-10-11T23:56:47.457Z,101507.23
2018-10-11T23:59:15.643Z,101507.09
